Kezdőlap
METAR-TAF:

METAR-TAF

Repülőterek :

Tucson, Arizona, Amerikai Egyesült Államok

földrajzi szélesség: 32-24-34N, földrajzi hosszúság: 111-13-06W, magasság: 619 m

Jelenlegi meteorológiai megfigyelések

A jelentés 10 perccel ezelõtt készült, 04:15 UTC
Nyugat-északnyugati szél 4 kt
Hőmérséklet 10°C
Páratartalom 100%
Légköri nyomás 1017 hPa
Látótávolság: 16.1 km
Derült ég

METAR: KAVQ 100415Z AUTO 30004KT 10SM CLR 10/10 A3004 RMK AO2 T01010095

Idő: 21:25 (04:25 UTC)


TAF: hiányzik

Meteorológiai megfigyelések és előrejelzések több, mint 4000 repülőtéren (METAR és TAF jelentéseket).

A térképen piros és sárga pontok jelzik az elérhető meteorológiai állomásokat.

Mozgassa az egeret a pont fölött, hogy megjelenjen az állomás neve.

Azután kattintson az időjárási megfigyelések és előrejelzések megtekintéséhez.

A térkép megváltoztatása: kattintson a fekete keresztel jelölt zöld gombra ráközelítéshez, a vonallal jelölt zöld gombra távolításhoz, vagy a zöld nyilakra a szomszédos térképek eléréséhez.


METAR-TAF: